sensor_id;sensor_type;location;lat;lon;timestamp;P1;durP1;ratioP1;P2;durP2;ratioP2
59907;SDS011;61804;54.926;73.496;2023-09-18T00:01:07;61.63;;;39.85;;
59907;SDS011;61804;54.926;73.496;2023-09-18T00:03:35;72.40;;;41.42;;
59907;SDS011;61804;54.926;73.496;2023-09-18T00:06:04;68.43;;;39.97;;
59907;SDS011;61804;54.926;73.496;2023-09-18T00:08:33;53.67;;;36.70;;
59907;SDS011;61804;54.926;73.496;2023-09-18T00:11:01;62.78;;;43.17;;
59907;SDS011;61804;54.926;73.496;2023-09-18T00:13:28;79.28;;;47.22;;
59907;SDS011;61804;54.926;73.496;2023-09-18T00:15:56;103.70;;;72.15;;
59907;SDS011;61804;54.926;73.496;2023-09-18T00:18:27;104.55;;;74.50;;
59907;SDS011;61804;54.926;73.496;2023-09-18T00:20:55;116.80;;;83.45;;
59907;SDS011;61804;54.926;73.496;2023-09-18T00:23:23;73.03;;;55.40;;
59907;SDS011;61804;54.926;73.496;2023-09-18T00:25:52;67.00;;;46.75;;
59907;SDS011;61804;54.926;73.496;2023-09-18T00:28:19;52.33;;;43.58;;
59907;SDS011;61804;54.926;73.496;2023-09-18T00:30:47;55.67;;;45.65;;
59907;SDS011;61804;54.926;73.496;2023-09-18T00:33:16;54.97;;;40.53;;
59907;SDS011;61804;54.926;73.496;2023-09-18T00:35:49;63.05;;;44.58;;
59907;SDS011;61804;54.926;73.496;2023-09-18T00:38:17;64.20;;;43.30;;
59907;SDS011;61804;54.926;73.496;2023-09-18T00:40:44;46.22;;;31.95;;
59907;SDS011;61804;54.926;73.496;2023-09-18T00:43:13;63.92;;;34.65;;
59907;SDS011;61804;54.926;73.496;2023-09-18T00:45:44;39.92;;;31.63;;
59907;SDS011;61804;54.926;73.496;2023-09-18T00:48:12;53.67;;;32.60;;
59907;SDS011;61804;54.926;73.496;2023-09-18T00:50:41;34.03;;;24.15;;
59907;SDS011;61804;54.926;73.496;2023-09-18T00:53:10;38.50;;;26.42;;
59907;SDS011;61804;54.926;73.496;2023-09-18T00:55:42;28.75;;;22.38;;
59907;SDS011;61804;54.926;73.496;2023-09-18T00:58:10;30.00;;;23.67;;
59907;SDS011;61804;54.926;73.496;2023-09-18T01:00:38;36.55;;;24.65;;
59907;SDS011;61804;54.926;73.496;2023-09-18T01:03:07;46.63;;;25.98;;
59907;SDS011;61804;54.926;73.496;2023-09-18T01:05:44;37.83;;;25.90;;
59907;SDS011;61804;54.926;73.496;2023-09-18T01:08:13;30.45;;;21.95;;
59907;SDS011;61804;54.926;73.496;2023-09-18T01:10:47;27.98;;;23.92;;
59907;SDS011;61804;54.926;73.496;2023-09-18T01:13:18;38.65;;;26.90;;
59907;SDS011;61804;54.926;73.496;2023-09-18T01:18:50;38.40;;;24.88;;
59907;SDS011;61804;54.926;73.496;2023-09-18T01:21:20;36.50;;;24.60;;
59907;SDS011;61804;54.926;73.496;2023-09-18T01:23:48;47.95;;;27.60;;
59907;SDS011;61804;54.926;73.496;2023-09-18T01:26:16;74.22;;;54.50;;
59907;SDS011;61804;54.926;73.496;2023-09-18T01:28:47;250.85;;;176.13;;
59907;SDS011;61804;54.926;73.496;2023-09-18T01:31:14;277.17;;;189.68;;
59907;SDS011;61804;54.926;73.496;2023-09-18T01:33:44;162.48;;;113.20;;
59907;SDS011;61804;54.926;73.496;2023-09-18T01:36:14;91.55;;;66.50;;
59907;SDS011;61804;54.926;73.496;2023-09-18T01:38:42;94.55;;;63.35;;
59907;SDS011;61804;54.926;73.496;2023-09-18T01:41:13;90.38;;;57.95;;
59907;SDS011;61804;54.926;73.496;2023-09-18T01:43:41;129.45;;;69.82;;
59907;SDS011;61804;54.926;73.496;2023-09-18T01:46:08;126.28;;;66.40;;
59907;SDS011;61804;54.926;73.496;2023-09-18T01:48:36;92.03;;;56.03;;
59907;SDS011;61804;54.926;73.496;2023-09-18T01:51:04;166.35;;;82.55;;
59907;SDS011;61804;54.926;73.496;2023-09-18T01:53:32;130.90;;;70.30;;
59907;SDS011;61804;54.926;73.496;2023-09-18T01:56:01;250.82;;;153.85;;
59907;SDS011;61804;54.926;73.496;2023-09-18T01:58:29;150.30;;;95.45;;
59907;SDS011;61804;54.926;73.496;2023-09-18T02:00:59;142.75;;;90.00;;
59907;SDS011;61804;54.926;73.496;2023-09-18T02:03:27;161.00;;;106.38;;
59907;SDS011;61804;54.926;73.496;2023-09-18T02:05:54;134.40;;;86.80;;
59907;SDS011;61804;54.926;73.496;2023-09-18T02:08:24;131.07;;;79.70;;
59907;SDS011;61804;54.926;73.496;2023-09-18T02:10:51;126.82;;;71.05;;
59907;SDS011;61804;54.926;73.496;2023-09-18T02:13:19;125.78;;;78.78;;
59907;SDS011;61804;54.926;73.496;2023-09-18T02:15:48;150.35;;;71.25;;
59907;SDS011;61804;54.926;73.496;2023-09-18T02:18:15;107.45;;;62.70;;
59907;SDS011;61804;54.926;73.496;2023-09-18T02:20:45;141.07;;;68.50;;
59907;SDS011;61804;54.926;73.496;2023-09-18T02:23:15;110.32;;;69.40;;
59907;SDS011;61804;54.926;73.496;2023-09-18T02:25:44;115.45;;;66.55;;
59907;SDS011;61804;54.926;73.496;2023-09-18T02:28:12;116.50;;;64.55;;
59907;SDS011;61804;54.926;73.496;2023-09-18T02:30:40;117.60;;;67.88;;
59907;SDS011;61804;54.926;73.496;2023-09-18T02:33:07;111.43;;;66.55;;
59907;SDS011;61804;54.926;73.496;2023-09-18T02:35:35;141.43;;;70.03;;
59907;SDS011;61804;54.926;73.496;2023-09-18T02:38:03;107.70;;;60.97;;
59907;SDS011;61804;54.926;73.496;2023-09-18T02:40:31;103.70;;;57.65;;
59907;SDS011;61804;54.926;73.496;2023-09-18T02:42:59;90.25;;;51.25;;
59907;SDS011;61804;54.926;73.496;2023-09-18T02:45:26;106.05;;;55.10;;
59907;SDS011;61804;54.926;73.496;2023-09-18T02:47:54;101.57;;;53.10;;
59907;SDS011;61804;54.926;73.496;2023-09-18T02:50:22;63.40;;;44.63;;
59907;SDS011;61804;54.926;73.496;2023-09-18T02:52:50;85.55;;;43.78;;
59907;SDS011;61804;54.926;73.496;2023-09-18T02:55:18;85.32;;;41.45;;
59907;SDS011;61804;54.926;73.496;2023-09-18T02:57:48;67.00;;;33.38;;
59907;SDS011;61804;54.926;73.496;2023-09-18T03:00:15;36.67;;;26.65;;
59907;SDS011;61804;54.926;73.496;2023-09-18T03:02:44;68.90;;;35.97;;
59907;SDS011;61804;54.926;73.496;2023-09-18T03:05:11;67.43;;;33.83;;
59907;SDS011;61804;54.926;73.496;2023-09-18T03:07:38;47.78;;;28.88;;
59907;SDS011;61804;54.926;73.496;2023-09-18T03:10:08;39.45;;;24.63;;
59907;SDS011;61804;54.926;73.496;2023-09-18T03:12:40;49.25;;;24.42;;
59907;SDS011;61804;54.926;73.496;2023-09-18T03:15:07;46.45;;;25.42;;
59907;SDS011;61804;54.926;73.496;2023-09-18T03:17:35;40.25;;;25.80;;
59907;SDS011;61804;54.926;73.496;2023-09-18T03:20:03;58.17;;;26.15;;
59907;SDS011;61804;54.926;73.496;2023-09-18T03:22:34;58.42;;;21.30;;
59907;SDS011;61804;54.926;73.496;2023-09-18T03:25:01;38.70;;;23.98;;
59907;SDS011;61804;54.926;73.496;2023-09-18T03:27:31;33.50;;;22.02;;
59907;SDS011;61804;54.926;73.496;2023-09-18T03:29:59;33.03;;;18.42;;
59907;SDS011;61804;54.926;73.496;2023-09-18T03:32:27;34.95;;;20.10;;
59907;SDS011;61804;54.926;73.496;2023-09-18T03:34:54;46.58;;;18.38;;
59907;SDS011;61804;54.926;73.496;2023-09-18T03:37:23;41.50;;;18.15;;
59907;SDS011;61804;54.926;73.496;2023-09-18T03:39:51;28.77;;;19.52;;
59907;SDS011;61804;54.926;73.496;2023-09-18T03:42:18;42.30;;;19.88;;
59907;SDS011;61804;54.926;73.496;2023-09-18T03:44:47;31.75;;;16.27;;
59907;SDS011;61804;54.926;73.496;2023-09-18T03:47:14;41.70;;;17.73;;
59907;SDS011;61804;54.926;73.496;2023-09-18T03:49:42;31.52;;;16.15;;
59907;SDS011;61804;54.926;73.496;2023-09-18T03:52:09;37.45;;;15.77;;
59907;SDS011;61804;54.926;73.496;2023-09-18T03:54:38;46.58;;;20.95;;
59907;SDS011;61804;54.926;73.496;2023-09-18T03:57:07;58.30;;;19.70;;
59907;SDS011;61804;54.926;73.496;2023-09-18T03:59:38;60.10;;;18.13;;
59907;SDS011;61804;54.926;73.496;2023-09-18T04:02:07;51.30;;;19.15;;
59907;SDS011;61804;54.926;73.496;2023-09-18T04:04:34;38.17;;;18.05;;
59907;SDS011;61804;54.926;73.496;2023-09-18T04:07:06;26.15;;;15.68;;
59907;SDS011;61804;54.926;73.496;2023-09-18T04:09:34;40.95;;;16.00;;
59907;SDS011;61804;54.926;73.496;2023-09-18T04:12:02;21.02;;;10.90;;
59907;SDS011;61804;54.926;73.496;2023-09-18T04:14:32;26.63;;;11.68;;
59907;SDS011;61804;54.926;73.496;2023-09-18T04:17:00;15.77;;;10.60;;
59907;SDS011;61804;54.926;73.496;2023-09-18T04:19:28;21.27;;;12.32;;
59907;SDS011;61804;54.926;73.496;2023-09-18T04:21:56;29.33;;;13.90;;
59907;SDS011;61804;54.926;73.496;2023-09-18T04:24:26;18.27;;;11.90;;
59907;SDS011;61804;54.926;73.496;2023-09-18T04:26:55;24.50;;;12.75;;
59907;SDS011;61804;54.926;73.496;2023-09-18T04:29:22;16.08;;;9.07;;
59907;SDS011;61804;54.926;73.496;2023-09-18T04:31:50;14.60;;;9.98;;
59907;SDS011;61804;54.926;73.496;2023-09-18T04:34:19;28.55;;;12.23;;
59907;SDS011;61804;54.926;73.496;2023-09-18T04:36:47;19.92;;;14.10;;
59907;SDS011;61804;54.926;73.496;2023-09-18T04:39:15;19.85;;;11.23;;
59907;SDS011;61804;54.926;73.496;2023-09-18T04:41:43;20.10;;;9.77;;
59907;SDS011;61804;54.926;73.496;2023-09-18T04:44:10;16.73;;;10.32;;
59907;SDS011;61804;54.926;73.496;2023-09-18T04:46:40;11.95;;;9.52;;
59907;SDS011;61804;54.926;73.496;2023-09-18T04:49:11;18.65;;;12.43;;
59907;SDS011;61804;54.926;73.496;2023-09-18T04:51:39;28.65;;;17.25;;
59907;SDS011;61804;54.926;73.496;2023-09-18T04:54:09;24.15;;;14.35;;
59907;SDS011;61804;54.926;73.496;2023-09-18T04:56:37;16.15;;;10.15;;
59907;SDS011;61804;54.926;73.496;2023-09-18T04:59:05;26.00;;;19.13;;
59907;SDS011;61804;54.926;73.496;2023-09-18T05:01:32;35.83;;;18.38;;
59907;SDS011;61804;54.926;73.496;2023-09-18T05:04:00;20.58;;;16.13;;
59907;SDS011;61804;54.926;73.496;2023-09-18T05:06:28;44.10;;;19.67;;
59907;SDS011;61804;54.926;73.496;2023-09-18T05:08:55;23.08;;;15.15;;
59907;SDS011;61804;54.926;73.496;2023-09-18T05:11:24;22.10;;;14.48;;
59907;SDS011;61804;54.926;73.496;2023-09-18T05:13:51;16.85;;;12.73;;
59907;SDS011;61804;54.926;73.496;2023-09-18T05:16:19;13.20;;;9.55;;
59907;SDS011;61804;54.926;73.496;2023-09-18T05:18:47;17.92;;;12.02;;
59907;SDS011;61804;54.926;73.496;2023-09-18T05:21:14;19.05;;;12.05;;
59907;SDS011;61804;54.926;73.496;2023-09-18T05:23:41;27.23;;;12.07;;
59907;SDS011;61804;54.926;73.496;2023-09-18T05:26:08;19.40;;;10.90;;
59907;SDS011;61804;54.926;73.496;2023-09-18T05:28:36;30.90;;;17.88;;
59907;SDS011;61804;54.926;73.496;2023-09-18T05:31:04;26.23;;;11.02;;
59907;SDS011;61804;54.926;73.496;2023-09-18T05:33:31;25.23;;;15.93;;
59907;SDS011;61804;54.926;73.496;2023-09-18T05:35:58;41.88;;;16.13;;
59907;SDS011;61804;54.926;73.496;2023-09-18T05:38:28;18.75;;;11.30;;
59907;SDS011;61804;54.926;73.496;2023-09-18T05:40:58;22.38;;;13.18;;
59907;SDS011;61804;54.926;73.496;2023-09-18T05:43:26;32.30;;;13.15;;
59907;SDS011;61804;54.926;73.496;2023-09-18T05:45:57;42.97;;;16.70;;
59907;SDS011;61804;54.926;73.496;2023-09-18T05:48:25;21.10;;;13.95;;
59907;SDS011;61804;54.926;73.496;2023-09-18T05:50:53;28.10;;;14.07;;
59907;SDS011;61804;54.926;73.496;2023-09-18T05:53:21;28.88;;;14.75;;
59907;SDS011;61804;54.926;73.496;2023-09-18T05:55:49;28.55;;;16.42;;
59907;SDS011;61804;54.926;73.496;2023-09-18T05:58:18;28.60;;;14.85;;
59907;SDS011;61804;54.926;73.496;2023-09-18T06:00:49;41.22;;;16.08;;
59907;SDS011;61804;54.926;73.496;2023-09-18T06:03:17;22.95;;;12.40;;
59907;SDS011;61804;54.926;73.496;2023-09-18T06:05:46;26.67;;;12.80;;
59907;SDS011;61804;54.926;73.496;2023-09-18T06:08:15;33.03;;;13.65;;
59907;SDS011;61804;54.926;73.496;2023-09-18T06:10:42;23.88;;;11.68;;
59907;SDS011;61804;54.926;73.496;2023-09-18T06:13:10;38.92;;;15.02;;
59907;SDS011;61804;54.926;73.496;2023-09-18T06:15:38;25.45;;;14.23;;
59907;SDS011;61804;54.926;73.496;2023-09-18T06:18:05;40.60;;;13.98;;
59907;SDS011;61804;54.926;73.496;2023-09-18T06:20:33;29.10;;;16.70;;
59907;SDS011;61804;54.926;73.496;2023-09-18T06:23:00;39.65;;;13.52;;
59907;SDS011;61804;54.926;73.496;2023-09-18T06:25:30;42.75;;;14.23;;
59907;SDS011;61804;54.926;73.496;2023-09-18T06:27:57;37.92;;;13.98;;
59907;SDS011;61804;54.926;73.496;2023-09-18T06:30:27;40.10;;;13.25;;
59907;SDS011;61804;54.926;73.496;2023-09-18T06:32:57;33.08;;;12.40;;
59907;SDS011;61804;54.926;73.496;2023-09-18T06:35:25;26.88;;;12.38;;
59907;SDS011;61804;54.926;73.496;2023-09-18T06:37:53;26.48;;;13.32;;
59907;SDS011;61804;54.926;73.496;2023-09-18T06:40:25;41.05;;;14.73;;
59907;SDS011;61804;54.926;73.496;2023-09-18T06:42:58;44.45;;;16.00;;
59907;SDS011;61804;54.926;73.496;2023-09-18T06:45:27;29.60;;;11.88;;
59907;SDS011;61804;54.926;73.496;2023-09-18T06:47:54;26.67;;;14.55;;
59907;SDS011;61804;54.926;73.496;2023-09-18T06:50:22;24.52;;;13.45;;
59907;SDS011;61804;54.926;73.496;2023-09-18T06:52:49;24.70;;;10.30;;
59907;SDS011;61804;54.926;73.496;2023-09-18T06:55:17;34.53;;;12.98;;
59907;SDS011;61804;54.926;73.496;2023-09-18T06:57:45;49.65;;;15.25;;
59907;SDS011;61804;54.926;73.496;2023-09-18T07:00:14;31.08;;;13.52;;
59907;SDS011;61804;54.926;73.496;2023-09-18T07:02:43;32.50;;;14.07;;
59907;SDS011;61804;54.926;73.496;2023-09-18T07:05:14;49.72;;;13.40;;
59907;SDS011;61804;54.926;73.496;2023-09-18T07:07:42;24.67;;;11.68;;
59907;SDS011;61804;54.926;73.496;2023-09-18T07:10:13;27.58;;;11.70;;
59907;SDS011;61804;54.926;73.496;2023-09-18T07:12:41;38.53;;;15.00;;
59907;SDS011;61804;54.926;73.496;2023-09-18T07:15:09;31.55;;;13.43;;
59907;SDS011;61804;54.926;73.496;2023-09-18T07:17:36;31.40;;;12.57;;
59907;SDS011;61804;54.926;73.496;2023-09-18T07:20:04;41.25;;;11.82;;
59907;SDS011;61804;54.926;73.496;2023-09-18T07:22:44;34.35;;;11.45;;
59907;SDS011;61804;54.926;73.496;2023-09-18T07:25:13;37.47;;;14.73;;
59907;SDS011;61804;54.926;73.496;2023-09-18T07:27:41;20.40;;;11.48;;
59907;SDS011;61804;54.926;73.496;2023-09-18T07:30:12;25.80;;;10.63;;
59907;SDS011;61804;54.926;73.496;2023-09-18T07:32:41;25.85;;;11.38;;
59907;SDS011;61804;54.926;73.496;2023-09-18T07:35:09;23.27;;;11.05;;
59907;SDS011;61804;54.926;73.496;2023-09-18T07:37:36;23.05;;;9.80;;
59907;SDS011;61804;54.926;73.496;2023-09-18T07:40:06;21.52;;;9.93;;
59907;SDS011;61804;54.926;73.496;2023-09-18T07:42:34;26.35;;;10.23;;
59907;SDS011;61804;54.926;73.496;2023-09-18T07:45:01;21.67;;;11.45;;
59907;SDS011;61804;54.926;73.496;2023-09-18T07:47:29;30.50;;;11.25;;
59907;SDS011;61804;54.926;73.496;2023-09-18T07:49:57;28.58;;;11.90;;
59907;SDS011;61804;54.926;73.496;2023-09-18T07:52:25;31.48;;;16.83;;
59907;SDS011;61804;54.926;73.496;2023-09-18T07:54:52;31.77;;;10.60;;
59907;SDS011;61804;54.926;73.496;2023-09-18T07:57:20;33.83;;;9.27;;
59907;SDS011;61804;54.926;73.496;2023-09-18T07:59:49;17.25;;;9.18;;
59907;SDS011;61804;54.926;73.496;2023-09-18T08:02:17;14.20;;;7.07;;
59907;SDS011;61804;54.926;73.496;2023-09-18T08:04:49;15.55;;;7.50;;
59907;SDS011;61804;54.926;73.496;2023-09-18T08:07:19;18.38;;;7.43;;
59907;SDS011;61804;54.926;73.496;2023-09-18T08:09:47;22.90;;;9.85;;
59907;SDS011;61804;54.926;73.496;2023-09-18T08:12:15;20.00;;;8.18;;
59907;SDS011;61804;54.926;73.496;2023-09-18T08:14:43;31.17;;;8.88;;
59907;SDS011;61804;54.926;73.496;2023-09-18T08:17:11;12.55;;;7.47;;
59907;SDS011;61804;54.926;73.496;2023-09-18T08:19:42;15.25;;;9.10;;
59907;SDS011;61804;54.926;73.496;2023-09-18T08:22:11;32.47;;;8.98;;
59907;SDS011;61804;54.926;73.496;2023-09-18T08:24:42;17.05;;;8.35;;
59907;SDS011;61804;54.926;73.496;2023-09-18T08:27:13;35.42;;;10.68;;
59907;SDS011;61804;54.926;73.496;2023-09-18T08:29:40;45.33;;;13.13;;
59907;SDS011;61804;54.926;73.496;2023-09-18T08:32:08;28.23;;;12.02;;
59907;SDS011;61804;54.926;73.496;2023-09-18T08:34:35;35.55;;;10.55;;
59907;SDS011;61804;54.926;73.496;2023-09-18T08:37:04;19.50;;;8.18;;
59907;SDS011;61804;54.926;73.496;2023-09-18T08:39:32;38.55;;;13.07;;
59907;SDS011;61804;54.926;73.496;2023-09-18T08:42:03;21.98;;;7.80;;
59907;SDS011;61804;54.926;73.496;2023-09-18T08:44:33;17.88;;;6.80;;
59907;SDS011;61804;54.926;73.496;2023-09-18T08:47:02;9.52;;;5.82;;
59907;SDS011;61804;54.926;73.496;2023-09-18T08:49:34;26.95;;;10.32;;
59907;SDS011;61804;54.926;73.496;2023-09-18T08:52:03;44.15;;;11.75;;
59907;SDS011;61804;54.926;73.496;2023-09-18T08:54:31;12.27;;;7.53;;
59907;SDS011;61804;54.926;73.496;2023-09-18T08:57:01;14.15;;;7.35;;
59907;SDS011;61804;54.926;73.496;2023-09-18T08:59:30;18.27;;;7.57;;
59907;SDS011;61804;54.926;73.496;2023-09-18T09:01:59;8.85;;;5.43;;
59907;SDS011;61804;54.926;73.496;2023-09-18T09:04:27;26.40;;;7.88;;
59907;SDS011;61804;54.926;73.496;2023-09-18T09:06:55;11.48;;;6.35;;
59907;SDS011;61804;54.926;73.496;2023-09-18T09:09:25;7.63;;;4.03;;
59907;SDS011;61804;54.926;73.496;2023-09-18T09:11:57;6.65;;;4.22;;
59907;SDS011;61804;54.926;73.496;2023-09-18T09:14:25;6.03;;;4.68;;
59907;SDS011;61804;54.926;73.496;2023-09-18T09:16:55;10.60;;;5.10;;
59907;SDS011;61804;54.926;73.496;2023-09-18T09:19:31;11.88;;;5.20;;
59907;SDS011;61804;54.926;73.496;2023-09-18T09:21:59;10.80;;;5.35;;
59907;SDS011;61804;54.926;73.496;2023-09-18T09:24:38;41.72;;;8.25;;
59907;SDS011;61804;54.926;73.496;2023-09-18T09:27:07;20.48;;;6.70;;
59907;SDS011;61804;54.926;73.496;2023-09-18T09:29:35;91.43;;;15.98;;
59907;SDS011;61804;54.926;73.496;2023-09-18T09:32:13;14.93;;;5.47;;
59907;SDS011;61804;54.926;73.496;2023-09-18T09:34:43;21.95;;;7.40;;
59907;SDS011;61804;54.926;73.496;2023-09-18T09:37:11;7.97;;;5.85;;
59907;SDS011;61804;54.926;73.496;2023-09-18T09:39:52;12.38;;;6.20;;
59907;SDS011;61804;54.926;73.496;2023-09-18T09:42:20;16.33;;;5.90;;
59907;SDS011;61804;54.926;73.496;2023-09-18T09:45:00;23.90;;;6.85;;
59907;SDS011;61804;54.926;73.496;2023-09-18T09:47:31;14.15;;;5.90;;
59907;SDS011;61804;54.926;73.496;2023-09-18T09:50:06;16.55;;;6.55;;
59907;SDS011;61804;54.926;73.496;2023-09-18T09:52:34;27.80;;;7.97;;
59907;SDS011;61804;54.926;73.496;2023-09-18T09:55:02;15.38;;;6.50;;
59907;SDS011;61804;54.926;73.496;2023-09-18T09:57:34;22.73;;;8.93;;
59907;SDS011;61804;54.926;73.496;2023-09-18T10:00:14;17.05;;;8.38;;
59907;SDS011;61804;54.926;73.496;2023-09-18T10:02:55;33.45;;;8.32;;
59907;SDS011;61804;54.926;73.496;2023-09-18T10:05:42;47.00;;;26.92;;
59907;SDS011;61804;54.926;73.496;2023-09-18T10:08:12;19.63;;;9.43;;
59907;SDS011;61804;54.926;73.496;2023-09-18T10:10:42;36.17;;;11.48;;
59907;SDS011;61804;54.926;73.496;2023-09-18T10:13:12;22.90;;;7.25;;
59907;SDS011;61804;54.926;73.496;2023-09-18T10:15:40;11.18;;;6.30;;
59907;SDS011;61804;54.926;73.496;2023-09-18T10:21:11;7.22;;;5.90;;
59907;SDS011;61804;54.926;73.496;2023-09-18T10:24:23;21.95;;;6.00;;
59907;SDS011;61804;54.926;73.496;2023-09-18T10:26:32;22.95;;;9.75;;
59907;SDS011;61804;54.926;73.496;2023-09-18T10:29:00;11.77;;;6.88;;
59907;SDS011;61804;54.926;73.496;2023-09-18T10:31:30;11.48;;;5.22;;
59907;SDS011;61804;54.926;73.496;2023-09-18T10:34:01;14.88;;;5.72;;
59907;SDS011;61804;54.926;73.496;2023-09-18T10:36:29;12.13;;;8.05;;
59907;SDS011;61804;54.926;73.496;2023-09-18T10:38:57;18.30;;;7.10;;
59907;SDS011;61804;54.926;73.496;2023-09-18T10:41:25;17.13;;;8.75;;
59907;SDS011;61804;54.926;73.496;2023-09-18T10:43:54;29.33;;;19.88;;
59907;SDS011;61804;54.926;73.496;2023-09-18T10:46:26;17.27;;;15.43;;
59907;SDS011;61804;54.926;73.496;2023-09-18T10:48:54;11.98;;;8.65;;
59907;SDS011;61804;54.926;73.496;2023-09-18T10:51:22;16.38;;;11.40;;
59907;SDS011;61804;54.926;73.496;2023-09-18T10:53:51;20.02;;;9.70;;
59907;SDS011;61804;54.926;73.496;2023-09-18T10:56:23;13.07;;;8.13;;
59907;SDS011;61804;54.926;73.496;2023-09-18T10:59:01;16.88;;;10.40;;
59907;SDS011;61804;54.926;73.496;2023-09-18T11:01:35;13.45;;;10.93;;
59907;SDS011;61804;54.926;73.496;2023-09-18T11:04:04;16.50;;;9.90;;
59907;SDS011;61804;54.926;73.496;2023-09-18T11:09:25;13.88;;;9.43;;
59907;SDS011;61804;54.926;73.496;2023-09-18T11:14:48;11.73;;;8.43;;
59907;SDS011;61804;54.926;73.496;2023-09-18T11:20:18;13.52;;;8.02;;
59907;SDS011;61804;54.926;73.496;2023-09-18T11:22:49;16.92;;;8.65;;
59907;SDS011;61804;54.926;73.496;2023-09-18T11:25:29;16.20;;;9.55;;
59907;SDS011;61804;54.926;73.496;2023-09-18T11:27:57;10.15;;;8.60;;
59907;SDS011;61804;54.926;73.496;2023-09-18T11:30:26;15.05;;;9.05;;
59907;SDS011;61804;54.926;73.496;2023-09-18T11:32:53;13.65;;;9.18;;
59907;SDS011;61804;54.926;73.496;2023-09-18T11:35:22;18.88;;;9.23;;
59907;SDS011;61804;54.926;73.496;2023-09-18T11:38:02;13.50;;;8.07;;
59907;SDS011;61804;54.926;73.496;2023-09-18T11:40:33;16.30;;;8.77;;
59907;SDS011;61804;54.926;73.496;2023-09-18T11:45:52;15.00;;;7.03;;
59907;SDS011;61804;54.926;73.496;2023-09-18T11:48:22;7.80;;;6.28;;
59907;SDS011;61804;54.926;73.496;2023-09-18T11:50:52;11.68;;;5.88;;
59907;SDS011;61804;54.926;73.496;2023-09-18T11:53:21;9.25;;;6.38;;
59907;SDS011;61804;54.926;73.496;2023-09-18T11:55:53;20.70;;;10.05;;
59907;SDS011;61804;54.926;73.496;2023-09-18T11:58:21;15.00;;;8.85;;
59907;SDS011;61804;54.926;73.496;2023-09-18T12:00:50;10.07;;;7.35;;
59907;SDS011;61804;54.926;73.496;2023-09-18T12:03:19;14.80;;;6.22;;
59907;SDS011;61804;54.926;73.496;2023-09-18T12:05:53;12.93;;;5.43;;
59907;SDS011;61804;54.926;73.496;2023-09-18T12:08:22;11.32;;;6.70;;
59907;SDS011;61804;54.926;73.496;2023-09-18T12:10:50;14.90;;;5.75;;
59907;SDS011;61804;54.926;73.496;2023-09-18T12:13:17;13.73;;;6.50;;
59907;SDS011;61804;54.926;73.496;2023-09-18T12:15:45;8.98;;;5.68;;
59907;SDS011;61804;54.926;73.496;2023-09-18T12:18:14;12.77;;;7.28;;
59907;SDS011;61804;54.926;73.496;2023-09-18T12:20:45;12.90;;;6.55;;
59907;SDS011;61804;54.926;73.496;2023-09-18T12:23:13;20.38;;;9.18;;
59907;SDS011;61804;54.926;73.496;2023-09-18T12:25:41;10.25;;;8.07;;
59907;SDS011;61804;54.926;73.496;2023-09-18T12:28:08;18.83;;;8.75;;
59907;SDS011;61804;54.926;73.496;2023-09-18T12:30:36;22.90;;;11.20;;
59907;SDS011;61804;54.926;73.496;2023-09-18T12:33:04;19.05;;;11.82;;
59907;SDS011;61804;54.926;73.496;2023-09-18T12:35:33;24.95;;;12.70;;
59907;SDS011;61804;54.926;73.496;2023-09-18T12:38:02;17.65;;;11.90;;
59907;SDS011;61804;54.926;73.496;2023-09-18T12:40:40;24.17;;;12.52;;
59907;SDS011;61804;54.926;73.496;2023-09-18T12:43:12;34.58;;;14.63;;
59907;SDS011;61804;54.926;73.496;2023-09-18T12:45:42;24.33;;;14.88;;
59907;SDS011;61804;54.926;73.496;2023-09-18T12:48:11;79.85;;;22.55;;
59907;SDS011;61804;54.926;73.496;2023-09-18T12:50:39;55.83;;;19.05;;
59907;SDS011;61804;54.926;73.496;2023-09-18T12:53:10;63.00;;;21.42;;
59907;SDS011;61804;54.926;73.496;2023-09-18T12:55:43;52.72;;;20.77;;
59907;SDS011;61804;54.926;73.496;2023-09-18T12:58:10;95.75;;;29.00;;
59907;SDS011;61804;54.926;73.496;2023-09-18T13:00:44;78.38;;;30.52;;
59907;SDS011;61804;54.926;73.496;2023-09-18T13:03:18;64.15;;;23.45;;
59907;SDS011;61804;54.926;73.496;2023-09-18T13:05:45;93.30;;;32.58;;
59907;SDS011;61804;54.926;73.496;2023-09-18T13:08:23;86.50;;;31.02;;
59907;SDS011;61804;54.926;73.496;2023-09-18T13:10:50;72.28;;;27.52;;
59907;SDS011;61804;54.926;73.496;2023-09-18T13:13:20;101.55;;;34.00;;
59907;SDS011;61804;54.926;73.496;2023-09-18T13:15:48;86.65;;;31.63;;
59907;SDS011;61804;54.926;73.496;2023-09-18T13:18:17;111.25;;;34.13;;
59907;SDS011;61804;54.926;73.496;2023-09-18T13:20:50;98.40;;;37.47;;
59907;SDS011;61804;54.926;73.496;2023-09-18T13:23:17;95.03;;;36.15;;
59907;SDS011;61804;54.926;73.496;2023-09-18T13:25:45;90.47;;;32.08;;
59907;SDS011;61804;54.926;73.496;2023-09-18T13:28:14;110.25;;;38.63;;
59907;SDS011;61804;54.926;73.496;2023-09-18T13:30:42;120.10;;;35.55;;
59907;SDS011;61804;54.926;73.496;2023-09-18T13:33:15;140.25;;;52.38;;
59907;SDS011;61804;54.926;73.496;2023-09-18T13:35:44;113.25;;;53.85;;
59907;SDS011;61804;54.926;73.496;2023-09-18T13:38:12;119.55;;;43.47;;
59907;SDS011;61804;54.926;73.496;2023-09-18T13:40:42;113.22;;;39.65;;
59907;SDS011;61804;54.926;73.496;2023-09-18T13:43:12;71.30;;;32.45;;
59907;SDS011;61804;54.926;73.496;2023-09-18T13:45:41;99.47;;;37.33;;
59907;SDS011;61804;54.926;73.496;2023-09-18T13:48:09;92.32;;;38.28;;
59907;SDS011;61804;54.926;73.496;2023-09-18T13:50:37;106.43;;;44.03;;
59907;SDS011;61804;54.926;73.496;2023-09-18T13:53:05;140.43;;;58.05;;
59907;SDS011;61804;54.926;73.496;2023-09-18T13:55:33;136.50;;;59.33;;
59907;SDS011;61804;54.926;73.496;2023-09-18T13:58:03;156.88;;;65.38;;
59907;SDS011;61804;54.926;73.496;2023-09-18T14:00:31;147.10;;;58.67;;
59907;SDS011;61804;54.926;73.496;2023-09-18T14:03:00;115.82;;;48.65;;
59907;SDS011;61804;54.926;73.496;2023-09-18T14:05:29;132.77;;;47.33;;
59907;SDS011;61804;54.926;73.496;2023-09-18T14:08:04;138.43;;;53.30;;
59907;SDS011;61804;54.926;73.496;2023-09-18T14:10:32;106.28;;;42.75;;
59907;SDS011;61804;54.926;73.496;2023-09-18T14:13:00;149.63;;;55.88;;
59907;SDS011;61804;54.926;73.496;2023-09-18T14:15:28;159.77;;;59.83;;
59907;SDS011;61804;54.926;73.496;2023-09-18T14:17:56;233.75;;;114.50;;
59907;SDS011;61804;54.926;73.496;2023-09-18T14:20:23;239.15;;;112.20;;
59907;SDS011;61804;54.926;73.496;2023-09-18T14:22:51;216.45;;;106.63;;
59907;SDS011;61804;54.926;73.496;2023-09-18T14:25:19;215.43;;;101.35;;
59907;SDS011;61804;54.926;73.496;2023-09-18T14:27:47;189.80;;;79.32;;
59907;SDS011;61804;54.926;73.496;2023-09-18T14:30:14;140.93;;;64.72;;
59907;SDS011;61804;54.926;73.496;2023-09-18T14:32:45;200.75;;;79.60;;
59907;SDS011;61804;54.926;73.496;2023-09-18T14:35:12;187.98;;;83.90;;
59907;SDS011;61804;54.926;73.496;2023-09-18T14:37:47;116.80;;;55.60;;
59907;SDS011;61804;54.926;73.496;2023-09-18T14:40:16;147.48;;;69.05;;